To NAV CANADA Home Page Login to a new session Search on AWWS site Feedback and Comments Disclaimer Vers la page française équivalente Tips FAQ What's new on the site To the Forecasts and Observations / NOTAM section To "File a Flight Plan" website Publications and other links Update of the User's profile FIC Telephone Numbers My Weather Data Folder Route Weather Data Regional Weather Data Local Weather Data To the Forecasts and Observations / NOTAM section
Request Generated 07/06/2015 at 15:53:09 UTC . Weather information available at that time is displayed.

METAR/TAF

SUDBURY/ON    

METAR CYSB 061500Z 22011G18KT 8SM BKN200 24/18 A3001 RMK CI5 HAZE
SLP163 DENSITY ALT 2300FT=
METAR CYSB 061400Z 19008KT 8SM FEW020 SCT220 22/17 A3002 RMK
HZ2CU1CI2 CU TR SLP164 DENSITY ALT 2000FT=
METAR CYSB 061300Z 22008KT 8SM SCT015 SCT230 19/16 A3004 RMK
HZ2CU1CI1 HZ SLP172 DENSITY ALT 1700FT=

TAF CYSB 061338Z 0614/0702 20010KT P6SM SCT230
BECMG 0616/0618 21012G22KT
BECMG 0700/0702 18012KT
RMK NXT FCST BY 062000Z=
Your time UTC time
Weather data provided by Environment Canada and NAV CANADA